createdAt,value
2022-10-29T00:04:21.534Z,75.56
2022-10-29T00:09:15.323Z,75.77
2022-10-29T00:14:08.835Z,75.74
2022-10-29T00:19:02.859Z,76.02
2022-10-29T00:23:58.687Z,76.09
2022-10-29T00:28:54.683Z,76.38
2022-10-29T00:33:48.777Z,76.39
2022-10-29T00:38:42.634Z,76.60
2022-10-29T00:43:39.003Z,76.27
2022-10-29T00:48:36.035Z,75.84
2022-10-29T00:53:35.265Z,76.32
2022-10-29T00:58:30.014Z,76.41
2022-10-29T01:03:24.990Z,76.00
2022-10-29T01:08:21.887Z,76.45
2022-10-29T01:13:32.482Z,76.93
2022-10-29T01:18:36.602Z,77.31
2022-10-29T01:24:04.797Z,78.62
2022-10-29T01:29:20.904Z,78.57
2022-10-29T01:34:24.637Z,78.27
2022-10-29T01:39:28.822Z,78.50
2022-10-29T01:44:35.033Z,78.18
2022-10-29T01:49:34.456Z,78.08
2022-10-29T01:54:30.400Z,78.47
2022-10-29T01:59:35.803Z,79.27
2022-10-29T02:04:54.842Z,78.60
2022-10-29T02:09:56.294Z,78.32
2022-10-29T02:14:55.385Z,78.29
2022-10-29T02:19:53.008Z,78.90
2022-10-29T02:24:46.298Z,79.74
2022-10-29T02:29:39.730Z,79.94
2022-10-29T02:34:33.556Z,80.24
2022-10-29T02:39:28.442Z,80.60
2022-10-29T02:44:21.720Z,80.24
2022-10-29T02:49:14.985Z,80.46
2022-10-29T02:54:08.242Z,81.03
2022-10-29T02:59:07.783Z,81.13
2022-10-29T03:04:04.293Z,81.58
2022-10-29T03:09:00.004Z,81.52
2022-10-29T03:13:53.328Z,81.08
2022-10-29T03:18:48.156Z,80.80
2022-10-29T03:23:41.491Z,81.28
2022-10-29T03:28:37.590Z,80.83
2022-10-29T03:33:31.078Z,81.14
2022-10-29T03:38:25.972Z,81.29
2022-10-29T03:43:19.597Z,81.78
2022-10-29T03:48:12.877Z,82.22
2022-10-29T03:53:06.230Z,82.31
2022-10-29T03:58:00.918Z,82.99
2022-10-29T04:02:54.483Z,83.01
2022-10-29T04:07:48.189Z,82.37
2022-10-29T04:12:46.188Z,82.28
2022-10-29T04:17:40.891Z,82.30
2022-10-29T04:33:05.387Z,81.38
2022-10-29T04:37:59.036Z,81.74
2022-10-29T04:43:22.857Z,82.61
2022-10-29T04:48:18.881Z,82.20
2022-10-29T04:53:14.718Z,81.62
2022-10-29T04:58:41.072Z,81.64
2022-10-29T05:03:38.945Z,81.60
2022-10-29T05:08:41.641Z,81.29
2022-10-29T05:13:35.577Z,80.73
2022-10-29T05:18:29.162Z,80.99
2022-10-29T05:23:31.519Z,80.86
2022-10-29T05:28:28.165Z,80.79
2022-10-29T05:33:33.861Z,80.14
2022-10-29T05:38:28.996Z,80.35
2022-10-29T05:43:26.028Z,81.55
2022-10-29T05:48:19.644Z,79.90
2022-10-29T05:53:37.089Z,78.42
2022-10-29T05:58:39.524Z,76.65
2022-10-29T06:18:46.003Z,72.81
2022-10-29T06:23:40.711Z,72.85
2022-10-29T06:28:35.111Z,72.90
2022-10-29T06:33:28.328Z,72.81
2022-10-29T06:38:21.438Z,72.53
2022-10-29T06:43:15.853Z,72.40
2022-10-29T06:48:08.975Z,72.67
2022-10-29T06:53:04.272Z,72.80
2022-10-29T06:57:58.784Z,73.22
2022-10-29T07:02:53.434Z,73.73
2022-10-29T07:07:48.283Z,74.19
2022-10-29T07:12:42.289Z,74.28
2022-10-29T07:17:37.797Z,74.63
2022-10-29T07:22:34.830Z,74.76
2022-10-29T07:27:30.625Z,74.95
2022-10-29T07:32:24.717Z,74.49
2022-10-29T07:37:17.876Z,74.02
2022-10-29T07:42:12.449Z,73.38
2022-10-29T07:47:05.586Z,73.01
2022-10-29T07:51:58.829Z,70.07
2022-10-29T07:56:53.241Z,68.26
2022-10-29T08:01:48.087Z,67.59
2022-10-29T08:06:41.300Z,66.22
2022-10-29T08:11:34.782Z,64.97
2022-10-29T08:16:28.276Z,64.11
2022-10-29T08:21:23.169Z,63.64
2022-10-29T08:26:16.265Z,63.02
2022-10-29T08:31:09.375Z,61.88
2022-10-29T08:36:02.508Z,60.29
2022-10-29T08:41:15.033Z,59.61
2022-10-29T08:46:20.642Z,59.83
2022-10-29T08:51:19.768Z,58.82
2022-10-29T08:56:19.666Z,57.69
2022-10-29T09:01:24.585Z,54.15
2022-10-29T09:06:25.215Z,51.97
2022-10-29T09:11:40.759Z,49.33
2022-10-29T09:16:44.167Z,49.81
2022-10-29T09:21:46.733Z,48.52
2022-10-29T09:26:49.870Z,47.97
2022-10-29T09:31:48.349Z,47.74
2022-10-29T09:36:42.154Z,47.45
2022-10-29T09:41:36.555Z,47.42
2022-10-29T09:46:43.121Z,46.88
2022-10-29T09:51:43.730Z,47.16
2022-10-29T09:56:37.447Z,47.45
2022-10-29T10:01:32.201Z,46.92
2022-10-29T10:06:25.331Z,46.78
2022-10-29T10:11:21.272Z,47.37
2022-10-29T10:16:14.948Z,49.03
2022-10-29T10:21:13.613Z,48.17
2022-10-29T10:26:06.783Z,48.08
2022-10-29T10:31:16.234Z,47.53
2022-10-29T10:36:11.796Z,47.80
2022-10-29T10:41:08.894Z,47.06
2022-10-29T10:46:06.560Z,46.61
2022-10-29T10:51:21.491Z,46.73
2022-10-29T10:56:20.485Z,45.33
2022-10-29T11:01:19.047Z,45.01
2022-10-29T11:06:17.713Z,44.97
2022-10-29T11:11:16.563Z,45.54
2022-10-29T11:16:16.410Z,44.63
2022-10-29T11:21:14.395Z,43.72
2022-10-29T11:26:14.383Z,44.74
2022-10-29T11:31:15.286Z,43.97
2022-10-29T11:36:17.168Z,43.79
2022-10-29T11:41:23.294Z,43.31
2022-10-29T11:46:26.162Z,42.67
2022-10-29T11:51:29.754Z,42.51
2022-10-29T11:56:33.776Z,42.69
2022-10-29T12:01:37.289Z,42.65
2022-10-29T12:06:39.474Z,42.91
2022-10-29T12:11:43.275Z,42.19
2022-10-29T12:16:51.621Z,42.98
2022-10-29T12:21:51.253Z,42.76
2022-10-29T12:26:49.893Z,42.48
2022-10-29T12:31:53.835Z,42.92
2022-10-29T12:36:57.667Z,43.00
2022-10-29T12:41:54.072Z,42.99
2022-10-29T12:46:59.509Z,43.19
2022-10-29T12:56:57.020Z,43.10
2022-10-29T13:02:10.965Z,42.86
2022-10-29T13:07:24.222Z,43.04
2022-10-29T13:13:02.831Z,42.18
2022-10-29T13:18:00.711Z,42.41
2022-10-29T13:22:56.436Z,41.64
2022-10-29T13:27:49.818Z,42.27
2022-10-29T13:32:43.257Z,42.91
2022-10-29T13:38:16.396Z,44.00
2022-10-29T13:43:18.024Z,43.73
2022-10-29T13:48:28.779Z,43.58
2022-10-29T13:53:26.888Z,43.85
2022-10-29T13:58:30.676Z,45.21
2022-10-29T14:03:34.995Z,44.95
2022-10-29T14:08:36.893Z,45.41
2022-10-29T14:13:49.256Z,46.13
2022-10-29T14:18:54.204Z,47.39
2022-10-29T14:24:02.218Z,47.05
2022-10-29T14:29:08.722Z,47.22
2022-10-29T14:34:11.233Z,48.06
2022-10-29T14:39:32.687Z,48.29
2022-10-29T14:44:42.311Z,49.19
2022-10-29T14:49:53.289Z,49.00
2022-10-29T14:54:52.843Z,50.07
2022-10-29T14:59:50.745Z,49.93
2022-10-29T15:04:51.343Z,50.02
2022-10-29T15:09:48.111Z,51.24
2022-10-29T15:14:53.464Z,51.89
2022-10-29T15:19:55.720Z,52.60
2022-10-29T15:24:53.498Z,52.85
2022-10-29T15:29:50.357Z,53.93
2022-10-29T15:34:50.571Z,54.14
2022-10-29T15:40:15.354Z,54.74
2022-10-29T15:45:19.141Z,55.01
2022-10-29T15:50:15.792Z,55.45
2022-10-29T15:55:26.360Z,56.25
2022-10-29T16:00:22.925Z,56.06
2022-10-29T16:05:17.326Z,56.33
2022-10-29T16:10:20.662Z,56.88
2022-10-29T16:15:20.004Z,57.19
2022-10-29T16:20:18.515Z,57.73
2022-10-29T16:25:22.850Z,58.45
2022-10-29T16:30:16.620Z,58.57
2022-10-29T16:35:15.620Z,58.98
2022-10-29T16:40:13.542Z,59.84
2022-10-29T16:45:15.364Z,60.26
2022-10-29T16:50:09.070Z,60.44
2022-10-29T16:55:02.964Z,60.51
2022-10-29T16:59:56.375Z,61.36
2022-10-29T17:04:52.912Z,62.44
2022-10-29T17:09:46.241Z,62.83
2022-10-29T17:14:39.471Z,63.58
2022-10-29T17:19:32.834Z,64.26
2022-10-29T17:24:28.025Z,65.09
2022-10-29T17:29:21.447Z,65.79
2022-10-29T17:34:14.696Z,65.97
2022-10-29T17:39:08.424Z,65.68
2022-10-29T17:44:03.206Z,66.04
2022-10-29T17:48:57.016Z,66.36
2022-10-29T17:53:50.352Z,66.79
2022-10-29T17:58:43.572Z,67.22
2022-10-29T18:03:38.545Z,67.89
2022-10-29T18:08:32.117Z,67.49
2022-10-29T18:13:25.535Z,67.15
2022-10-29T18:18:18.732Z,67.29
2022-10-29T18:23:13.510Z,67.39
2022-10-29T18:28:06.970Z,67.79
2022-10-29T18:33:00.763Z,68.06
2022-10-29T18:37:54.960Z,68.30
2022-10-29T18:42:50.364Z,68.21
2022-10-29T18:47:43.567Z,68.47
2022-10-29T18:52:38.987Z,68.55
2022-10-29T18:57:32.287Z,68.43
2022-10-29T19:02:27.651Z,68.75
2022-10-29T19:07:20.997Z,69.19
2022-10-29T19:12:14.534Z,69.36
2022-10-29T19:17:08.135Z,69.58
2022-10-29T19:22:03.018Z,70.17
2022-10-29T19:26:58.694Z,70.47
2022-10-29T19:31:52.035Z,70.38
2022-10-29T19:36:46.169Z,70.38
2022-10-29T19:41:41.070Z,70.16
2022-10-29T19:46:34.460Z,70.38
2022-10-29T19:51:28.631Z,70.52
2022-10-29T19:56:22.880Z,70.78
2022-10-29T20:01:19.626Z,71.02
2022-10-29T20:06:13.494Z,71.11
2022-10-29T20:11:10.345Z,71.41
2022-10-29T20:16:09.373Z,71.24
2022-10-29T20:26:04.205Z,71.50
2022-10-29T20:31:30.170Z,71.44
2022-10-29T20:36:26.614Z,72.00
2022-10-29T20:41:20.456Z,72.09
2022-10-29T20:46:13.751Z,71.96
2022-10-29T20:51:07.251Z,72.42
2022-10-29T20:56:01.954Z,72.19
2022-10-29T21:00:55.309Z,72.73
2022-10-29T21:05:51.272Z,72.60
2022-10-29T21:10:44.955Z,72.41
2022-10-29T21:15:39.674Z,72.44
2022-10-29T21:20:42.079Z,73.19
2022-10-29T21:25:40.046Z,72.96
2022-10-29T21:30:33.606Z,73.05
2022-10-29T21:35:30.570Z,72.78
2022-10-29T21:40:23.737Z,72.36
2022-10-29T21:45:18.827Z,72.59
2022-10-29T21:50:12.170Z,72.74
2022-10-29T21:55:07.598Z,72.29
2022-10-29T22:00:00.961Z,72.15
2022-10-29T22:04:54.327Z,72.09
2022-10-29T22:09:47.683Z,71.92
2022-10-29T22:14:42.362Z,72.18
2022-10-29T22:19:35.638Z,72.14
2022-10-29T22:24:28.754Z,72.26
2022-10-29T22:29:24.892Z,72.30
2022-10-29T22:34:19.535Z,72.04
2022-10-29T22:39:12.749Z,72.31
2022-10-29T22:44:06.146Z,72.39
2022-10-29T22:49:01.217Z,72.68
2022-10-29T22:53:55.944Z,72.99
2022-10-29T22:58:49.887Z,73.46
2022-10-29T23:03:44.207Z,74.06
2022-10-29T23:08:37.597Z,74.10
2022-10-29T23:13:32.163Z,73.90
2022-10-29T23:18:25.540Z,74.22
2022-10-29T23:23:18.741Z,74.23
2022-10-29T23:28:11.903Z,74.13
2022-10-29T23:33:06.501Z,73.97
2022-10-29T23:38:00.042Z,73.93
2022-10-29T23:42:53.580Z,73.85
2022-10-29T23:47:46.740Z,73.67
2022-10-29T23:52:41.748Z,73.91
2022-10-29T23:57:35.222Z,74.09
